SDM436 UIII-UNKL
Flight info
| Callsign | SDM436 |
|---|---|
| Flight time | 1h 18m |
| Altitude | 38000 |
| Route | BOGRA4D BOGRA A815 TUTEK A91 SUKOR W176 TISBU/K0735F240 A311 LALOM LALOM2R |
| Aircraft | A319/M-SDE3FGHIRWY/LB1 |
Departure
| Time | 2026-05-09 13:01 |
|---|---|
| Airport | Irkutsk International Airport (UIII) |
Arrival
| Time | 2026-05-09 14:19 |
|---|---|
| Airport | Krasnoyarsk International Airport (UNKL) |
| Time | Latitude | Longitude | Altitude | Speed | Heading |
|---|---|---|---|---|---|
| 2026-05-09 12:34 | 52.27109 | 104.36786 | 1629 ft | 0 kts | 199° |
| 2026-05-09 12:54 | 52.27101 | 104.36782 | 1629 ft | 3 kts | 199° |
| 2026-05-09 12:54 | 52.27071 | 104.36791 | 1630 ft | 6 kts | 140° |
| 2026-05-09 12:54 | 52.27047 | 104.36876 | 1629 ft | 11 kts | 111° |
| 2026-05-09 12:54 | 52.27014 | 104.37018 | 1629 ft | 16 kts | 111° |
| 2026-05-09 12:55 | 52.26996 | 104.37225 | 1629 ft | 21 kts | 73° |
| 2026-05-09 12:55 | 52.26951 | 104.37476 | 1631 ft | 26 kts | 114° |
| 2026-05-09 12:55 | 52.26874 | 104.37761 | 1634 ft | 29 kts | 114° |
| 2026-05-09 12:55 | 52.26789 | 104.38081 | 1639 ft | 32 kts | 113° |
| 2026-05-09 12:56 | 52.26695 | 104.38435 | 1644 ft | 36 kts | 113° |
| 2026-05-09 12:56 | 52.26593 | 104.38815 | 1649 ft | 37 kts | 113° |
| 2026-05-09 12:56 | 52.26496 | 104.39184 | 1662 ft | 34 kts | 113° |
| 2026-05-09 12:56 | 52.26403 | 104.39530 | 1665 ft | 32 kts | 113° |
| 2026-05-09 12:57 | 52.26317 | 104.39856 | 1663 ft | 30 kts | 113° |
| 2026-05-09 12:57 | 52.26235 | 104.40163 | 1684 ft | 29 kts | 114° |
| 2026-05-09 12:57 | 52.26159 | 104.40453 | 1678 ft | 27 kts | 114° |
| 2026-05-09 12:57 | 52.26086 | 104.40726 | 1678 ft | 26 kts | 114° |
| 2026-05-09 12:58 | 52.26017 | 104.40985 | 1683 ft | 23 kts | 113° |
| 2026-05-09 12:58 | 52.26041 | 104.41191 | 1683 ft | 21 kts | 26° |
| 2026-05-09 12:58 | 52.26109 | 104.41241 | 1683 ft | 3 kts | 24° |
| 2026-05-09 12:58 | 52.26110 | 104.41242 | 1683 ft | 0 kts | 24° |
| 2026-05-09 12:59 | 52.26118 | 104.41248 | 1683 ft | 3 kts | 24° |
| 2026-05-09 12:59 | 52.26143 | 104.41266 | 1680 ft | 5 kts | 24° |
| 2026-05-09 12:59 | 52.26188 | 104.41293 | 1681 ft | 9 kts | 10° |
| 2026-05-09 12:59 | 52.26249 | 104.41209 | 1678 ft | 15 kts | 292° |
| 2026-05-09 13:00 | 52.26258 | 104.41175 | 1677 ft | 17 kts | 294° |
| 2026-05-09 13:00 | 52.26422 | 104.40563 | 1672 ft | 97 kts | 293° |
| 2026-05-09 13:00 | 52.26779 | 104.39224 | 1651 ft | 158 kts | 293° |
| 2026-05-09 13:00 | 52.27238 | 104.37469 | 2010 ft | 176 kts | 295° |
| 2026-05-09 13:01 | 52.27726 | 104.35558 | 2588 ft | 187 kts | 296° |
| 2026-05-09 13:01 | 52.28236 | 104.33630 | 3379 ft | 185 kts | 296° |
| 2026-05-09 13:01 | 52.28770 | 104.31636 | 3840 ft | 203 kts | 296° |
| 2026-05-09 13:01 | 52.29516 | 104.29518 | 4165 ft | 229 kts | 316° |
| 2026-05-09 13:02 | 52.30939 | 104.28106 | 4648 ft | 253 kts | 338° |
| 2026-05-09 13:02 | 52.32644 | 104.27165 | 5482 ft | 263 kts | 343° |
| 2026-05-09 13:02 | 52.34418 | 104.26349 | 6470 ft | 267 kts | 343° |
| 2026-05-09 13:02 | 52.36215 | 104.25515 | 7467 ft | 269 kts | 342° |
| 2026-05-09 13:03 | 52.38006 | 104.24619 | 8512 ft | 270 kts | 340° |
| 2026-05-09 13:03 | 52.39792 | 104.23657 | 9591 ft | 270 kts | 339° |
| 2026-05-09 13:03 | 52.41585 | 104.22643 | 10374 ft | 281 kts | 338° |
| 2026-05-09 13:03 | 52.43511 | 104.21516 | 10726 ft | 305 kts | 338° |
| 2026-05-09 13:04 | 52.45584 | 104.20284 | 11003 ft | 329 kts | 338° |
| 2026-05-09 13:04 | 52.47812 | 104.18951 | 11204 ft | 353 kts | 338° |
| 2026-05-09 13:04 | 52.50173 | 104.17540 | 11648 ft | 366 kts | 338° |
| 2026-05-09 13:04 | 52.52582 | 104.16106 | 12338 ft | 371 kts | 339° |
| 2026-05-09 13:05 | 52.55023 | 104.14655 | 13079 ft | 375 kts | 339° |
| 2026-05-09 13:05 | 52.57496 | 104.13186 | 13799 ft | 379 kts | 339° |
| 2026-05-09 13:05 | 52.59957 | 104.11720 | 14413 ft | 384 kts | 338° |
| 2026-05-09 13:05 | 52.62481 | 104.10216 | 15061 ft | 388 kts | 339° |
| 2026-05-09 13:06 | 52.65036 | 104.08692 | 15698 ft | 391 kts | 339° |
| 2026-05-09 13:06 | 52.67604 | 104.07156 | 16354 ft | 394 kts | 338° |
| 2026-05-09 13:06 | 52.70180 | 104.05608 | 16974 ft | 396 kts | 338° |
| 2026-05-09 13:06 | 52.72788 | 104.04035 | 17568 ft | 400 kts | 338° |
| 2026-05-09 13:07 | 52.75409 | 104.02453 | 18133 ft | 403 kts | 338° |
| 2026-05-09 13:07 | 52.78067 | 104.00849 | 18639 ft | 406 kts | 338° |
| 2026-05-09 13:07 | 52.80729 | 103.99241 | 19146 ft | 408 kts | 338° |
| 2026-05-09 13:07 | 52.83400 | 103.97628 | 19652 ft | 410 kts | 338° |
| 2026-05-09 13:08 | 52.86083 | 103.96005 | 19877 ft | 410 kts | 338° |
| 2026-05-09 13:08 | 52.88768 | 103.94381 | 19930 ft | 410 kts | 338° |
| 2026-05-09 13:08 | 52.91445 | 103.92759 | 19934 ft | 409 kts | 338° |
| 2026-05-09 13:08 | 52.94119 | 103.91135 | 19950 ft | 409 kts | 338° |
| 2026-05-09 13:09 | 52.96784 | 103.89514 | 19937 ft | 407 kts | 338° |
| 2026-05-09 13:09 | 52.99446 | 103.87895 | 19945 ft | 408 kts | 338° |
| 2026-05-09 13:09 | 53.02120 | 103.86265 | 20392 ft | 411 kts | 338° |
| 2026-05-09 13:09 | 53.04815 | 103.84619 | 20906 ft | 412 kts | 338° |
| 2026-05-09 13:10 | 53.07509 | 103.82971 | 21386 ft | 413 kts | 338° |
| 2026-05-09 13:10 | 53.10212 | 103.81313 | 21856 ft | 415 kts | 338° |
| 2026-05-09 13:10 | 53.12927 | 103.79645 | 22318 ft | 416 kts | 338° |
| 2026-05-09 13:10 | 53.15643 | 103.77942 | 22773 ft | 418 kts | 336° |
| 2026-05-09 13:11 | 53.18296 | 103.76076 | 23217 ft | 419 kts | 334° |
| 2026-05-09 13:11 | 53.20945 | 103.74030 | 23609 ft | 420 kts | 333° |
| 2026-05-09 13:11 | 53.23576 | 103.71896 | 23945 ft | 422 kts | 332° |
| 2026-05-09 13:11 | 53.26218 | 103.69722 | 24281 ft | 424 kts | 332° |
| 2026-05-09 13:12 | 53.28872 | 103.67556 | 24615 ft | 426 kts | 333° |
| 2026-05-09 13:12 | 53.31554 | 103.65409 | 24942 ft | 427 kts | 333° |
| 2026-05-09 13:12 | 53.34195 | 103.63320 | 25263 ft | 429 kts | 333° |
| 2026-05-09 13:12 | 53.36814 | 103.61260 | 25568 ft | 431 kts | 333° |
| 2026-05-09 13:13 | 53.39531 | 103.59130 | 25874 ft | 432 kts | 333° |
| 2026-05-09 13:13 | 53.42263 | 103.56988 | 26180 ft | 434 kts | 333° |
| 2026-05-09 13:13 | 53.45001 | 103.54836 | 26494 ft | 435 kts | 333° |
| 2026-05-09 13:13 | 53.47674 | 103.52493 | 26911 ft | 432 kts | 326° |
| 2026-05-09 13:14 | 53.50065 | 103.49452 | 27421 ft | 429 kts | 317° |
| 2026-05-09 13:14 | 53.52107 | 103.45828 | 27920 ft | 426 kts | 309° |
| 2026-05-09 13:16 | 53.62409 | 103.16005 | 31151 ft | 417 kts | 301° |
| 2026-05-09 13:16 | 53.63836 | 103.11746 | 31582 ft | 416 kts | 301° |
| 2026-05-09 13:16 | 53.65251 | 103.07505 | 32017 ft | 414 kts | 301° |
| 2026-05-09 13:16 | 53.66659 | 103.03277 | 32500 ft | 412 kts | 301° |
| 2026-05-09 13:17 | 53.68061 | 102.99069 | 32972 ft | 410 kts | 301° |
| 2026-05-09 13:17 | 53.69456 | 102.94877 | 33430 ft | 409 kts | 301° |
| 2026-05-09 13:17 | 53.70843 | 102.90699 | 33890 ft | 407 kts | 301° |
| 2026-05-09 13:17 | 53.72226 | 102.86522 | 34277 ft | 406 kts | 301° |
| 2026-05-09 13:18 | 53.73605 | 102.82356 | 34626 ft | 406 kts | 301° |
| 2026-05-09 13:18 | 53.74982 | 102.78188 | 34970 ft | 406 kts | 300° |
| 2026-05-09 13:18 | 53.76337 | 102.74072 | 35303 ft | 406 kts | 300° |
| 2026-05-09 13:18 | 53.77713 | 102.69889 | 35625 ft | 407 kts | 300° |
| 2026-05-09 13:19 | 53.79083 | 102.65707 | 35933 ft | 407 kts | 300° |
| 2026-05-09 13:19 | 53.80452 | 102.61513 | 36218 ft | 407 kts | 300° |
| 2026-05-09 13:19 | 53.81826 | 102.57314 | 36520 ft | 407 kts | 300° |
| 2026-05-09 13:19 | 53.83198 | 102.53119 | 36808 ft | 407 kts | 300° |
| 2026-05-09 13:20 | 53.84571 | 102.48903 | 37087 ft | 408 kts | 300° |
| 2026-05-09 13:20 | 53.85938 | 102.44700 | 37418 ft | 407 kts | 300° |
| 2026-05-09 13:20 | 53.87308 | 102.40491 | 37710 ft | 407 kts | 300° |
| 2026-05-09 13:20 | 53.88677 | 102.36285 | 37910 ft | 408 kts | 300° |
| 2026-05-09 13:21 | 53.90046 | 102.32071 | 37948 ft | 409 kts | 300° |
| 2026-05-09 13:21 | 53.92775 | 102.23608 | 37945 ft | 408 kts | 300° |
| 2026-05-09 13:22 | 53.95473 | 102.15198 | 37930 ft | 408 kts | 300° |
| 2026-05-09 13:22 | 53.98189 | 102.06726 | 37952 ft | 408 kts | 300° |
| 2026-05-09 13:23 | 54.04958 | 101.85508 | 37956 ft | 408 kts | 300° |
| 2026-05-09 13:24 | 54.07672 | 101.77015 | 37957 ft | 408 kts | 300° |
| 2026-05-09 13:24 | 54.10376 | 101.68506 | 37950 ft | 408 kts | 300° |
| 2026-05-09 13:25 | 54.13067 | 101.59990 | 37959 ft | 408 kts | 300° |
| 2026-05-09 13:26 | 54.17071 | 101.47256 | 37967 ft | 407 kts | 299° |
| 2026-05-09 13:26 | 54.19748 | 101.38707 | 37966 ft | 407 kts | 299° |
| 2026-05-09 13:27 | 54.22417 | 101.30167 | 37992 ft | 407 kts | 299° |
| 2026-05-09 13:27 | 54.25075 | 101.21621 | 37979 ft | 407 kts | 299° |
| 2026-05-09 13:28 | 54.27722 | 101.13092 | 37962 ft | 406 kts | 299° |
| 2026-05-09 13:28 | 54.30354 | 101.04549 | 37960 ft | 405 kts | 299° |
| 2026-05-09 13:29 | 54.32985 | 100.96014 | 37955 ft | 405 kts | 299° |
| 2026-05-09 13:29 | 54.35607 | 100.87471 | 37953 ft | 405 kts | 299° |
| 2026-05-09 13:30 | 54.38205 | 100.78968 | 37950 ft | 405 kts | 299° |
| 2026-05-09 13:30 | 54.40811 | 100.70409 | 37942 ft | 404 kts | 298° |
| 2026-05-09 13:31 | 54.43402 | 100.61835 | 37949 ft | 404 kts | 298° |
| 2026-05-09 13:31 | 54.45995 | 100.53266 | 37951 ft | 404 kts | 298° |
| 2026-05-09 13:32 | 54.48148 | 100.46132 | 37951 ft | 404 kts | 298° |
| 2026-05-09 13:32 | 54.52013 | 100.33251 | 37949 ft | 404 kts | 298° |
| 2026-05-09 13:33 | 54.54585 | 100.24650 | 37948 ft | 404 kts | 298° |
| 2026-05-09 13:33 | 54.57148 | 100.16041 | 37948 ft | 404 kts | 298° |
| 2026-05-09 13:34 | 54.59703 | 100.07414 | 37988 ft | 404 kts | 298° |
| 2026-05-09 13:34 | 54.62247 | 99.98788 | 37974 ft | 403 kts | 298° |
| 2026-05-09 13:35 | 54.64786 | 99.90162 | 37970 ft | 403 kts | 298° |
| 2026-05-09 13:35 | 54.67306 | 99.81596 | 37956 ft | 402 kts | 298° |
| 2026-05-09 13:36 | 54.69829 | 99.72963 | 37935 ft | 402 kts | 298° |
| 2026-05-09 13:36 | 54.72345 | 99.64319 | 37940 ft | 402 kts | 298° |
| 2026-05-09 13:37 | 54.74854 | 99.55670 | 37943 ft | 402 kts | 297° |
| 2026-05-09 13:37 | 54.77359 | 99.46991 | 37946 ft | 402 kts | 297° |
| 2026-05-09 13:38 | 54.79857 | 99.38326 | 37949 ft | 402 kts | 297° |
| 2026-05-09 13:38 | 54.82348 | 99.29648 | 37940 ft | 402 kts | 297° |
| 2026-05-09 13:39 | 54.84808 | 99.21015 | 37923 ft | 402 kts | 297° |
| 2026-05-09 13:39 | 54.87288 | 99.12309 | 37929 ft | 402 kts | 297° |
| 2026-05-09 13:40 | 54.89614 | 99.03461 | 37933 ft | 403 kts | 292° |
| 2026-05-09 13:40 | 54.91584 | 98.94328 | 37943 ft | 404 kts | 292° |
| 2026-05-09 13:41 | 54.93554 | 98.85174 | 37941 ft | 404 kts | 292° |
| 2026-05-09 13:41 | 54.95516 | 98.76019 | 37976 ft | 404 kts | 292° |
| 2026-05-09 13:42 | 54.97471 | 98.66863 | 37965 ft | 403 kts | 292° |
| 2026-05-09 13:42 | 54.99418 | 98.57706 | 37958 ft | 403 kts | 291° |
| 2026-05-09 13:43 | 55.01353 | 98.48541 | 37959 ft | 403 kts | 291° |
| 2026-05-09 13:43 | 55.03278 | 98.39364 | 37960 ft | 403 kts | 291° |
| 2026-05-09 13:44 | 55.05192 | 98.30227 | 37954 ft | 403 kts | 291° |
| 2026-05-09 13:44 | 55.07111 | 98.21038 | 37937 ft | 403 kts | 291° |
| 2026-05-09 13:45 | 55.09019 | 98.11834 | 37934 ft | 404 kts | 291° |
| 2026-05-09 13:45 | 55.10927 | 98.02602 | 37934 ft | 404 kts | 291° |
| 2026-05-09 13:46 | 55.12832 | 97.93353 | 37937 ft | 405 kts | 291° |
| 2026-05-09 13:46 | 55.14733 | 97.84090 | 37936 ft | 405 kts | 291° |
| 2026-05-09 13:47 | 55.16626 | 97.74821 | 37941 ft | 405 kts | 291° |
| 2026-05-09 13:47 | 55.18509 | 97.65529 | 37926 ft | 405 kts | 290° |
| 2026-05-09 13:48 | 55.20379 | 97.56225 | 37929 ft | 406 kts | 290° |
| 2026-05-09 13:48 | 55.22257 | 97.46887 | 37932 ft | 406 kts | 290° |
| 2026-05-09 13:49 | 55.24127 | 97.37548 | 37929 ft | 406 kts | 290° |
| 2026-05-09 13:49 | 55.25985 | 97.28196 | 37927 ft | 406 kts | 290° |
| 2026-05-09 13:50 | 55.27845 | 97.18912 | 37931 ft | 406 kts | 290° |
| 2026-05-09 13:50 | 55.29737 | 97.09574 | 37932 ft | 406 kts | 290° |
| 2026-05-09 13:51 | 55.31625 | 97.00219 | 37929 ft | 406 kts | 290° |
| 2026-05-09 13:51 | 55.33500 | 96.90869 | 37962 ft | 406 kts | 290° |
| 2026-05-09 13:52 | 55.35361 | 96.81495 | 37954 ft | 406 kts | 290° |
| 2026-05-09 13:52 | 55.37212 | 96.72134 | 37948 ft | 405 kts | 290° |
| 2026-05-09 13:53 | 55.39053 | 96.62747 | 37933 ft | 405 kts | 289° |
| 2026-05-09 13:53 | 55.40893 | 96.53373 | 37926 ft | 405 kts | 290° |
| 2026-05-09 13:54 | 55.42717 | 96.44049 | 37919 ft | 405 kts | 289° |
| 2026-05-09 13:54 | 55.44535 | 96.34652 | 37920 ft | 405 kts | 289° |
| 2026-05-09 13:55 | 55.46350 | 96.25226 | 37920 ft | 406 kts | 289° |
| 2026-05-09 13:55 | 55.48157 | 96.15785 | 37916 ft | 406 kts | 289° |
| 2026-05-09 13:56 | 55.49954 | 96.06412 | 37897 ft | 406 kts | 289° |
| 2026-05-09 13:56 | 55.51763 | 95.96959 | 37896 ft | 407 kts | 289° |
| 2026-05-09 13:57 | 55.53565 | 95.87465 | 37900 ft | 408 kts | 289° |
| 2026-05-09 13:57 | 55.55355 | 95.77962 | 37900 ft | 408 kts | 289° |
| 2026-05-09 13:58 | 55.57140 | 95.68441 | 37902 ft | 408 kts | 289° |
| 2026-05-09 13:58 | 55.58922 | 95.58910 | 37904 ft | 408 kts | 289° |
| 2026-05-09 13:59 | 55.60697 | 95.49356 | 37882 ft | 409 kts | 288° |
| 2026-05-09 13:59 | 55.62471 | 95.39773 | 37887 ft | 410 kts | 288° |
| 2026-05-09 14:00 | 55.63640 | 95.33406 | 37889 ft | 411 kts | 288° |
| 2026-05-09 14:00 | 55.65988 | 95.20576 | 37897 ft | 411 kts | 288° |
| 2026-05-09 14:01 | 55.67744 | 95.10921 | 37895 ft | 412 kts | 288° |
| 2026-05-09 14:01 | 55.69494 | 95.01280 | 37376 ft | 411 kts | 288° |
| 2026-05-09 14:02 | 55.70368 | 94.96435 | 36479 ft | 414 kts | 288° |
| 2026-05-09 14:02 | 55.71245 | 94.91560 | 35648 ft | 415 kts | 288° |
| 2026-05-09 14:02 | 55.72125 | 94.86663 | 34738 ft | 418 kts | 288° |
| 2026-05-09 14:02 | 55.73001 | 94.81781 | 34065 ft | 415 kts | 288° |
| 2026-05-09 14:03 | 55.73875 | 94.76892 | 33085 ft | 417 kts | 288° |
| 2026-05-09 14:03 | 55.74753 | 94.71968 | 31975 ft | 421 kts | 288° |
| 2026-05-09 14:03 | 55.75639 | 94.66978 | 30852 ft | 426 kts | 288° |
| 2026-05-09 14:03 | 55.76526 | 94.61954 | 29799 ft | 428 kts | 287° |
| 2026-05-09 14:04 | 55.77416 | 94.56896 | 28546 ft | 431 kts | 287° |
| 2026-05-09 14:04 | 55.78311 | 94.51800 | 27363 ft | 432 kts | 287° |
| 2026-05-09 14:04 | 55.79204 | 94.46705 | 26186 ft | 433 kts | 287° |
| 2026-05-09 14:04 | 55.80102 | 94.41579 | 25047 ft | 434 kts | 286° |
| 2026-05-09 14:05 | 55.80995 | 94.36453 | 23951 ft | 434 kts | 286° |
| 2026-05-09 14:05 | 55.81886 | 94.31322 | 22779 ft | 434 kts | 285° |
| 2026-05-09 14:05 | 55.82790 | 94.26194 | 21533 ft | 434 kts | 286° |
| 2026-05-09 14:05 | 55.83716 | 94.21085 | 20462 ft | 433 kts | 287° |
| 2026-05-09 14:06 | 55.84648 | 94.16028 | 19572 ft | 428 kts | 287° |
| 2026-05-09 14:06 | 55.85575 | 94.11029 | 18680 ft | 424 kts | 287° |
| 2026-05-09 14:06 | 55.86493 | 94.06062 | 17756 ft | 420 kts | 287° |
| 2026-05-09 14:06 | 55.87392 | 94.01141 | 16899 ft | 414 kts | 287° |
| 2026-05-09 14:07 | 55.88269 | 93.96302 | 16094 ft | 408 kts | 287° |
| 2026-05-09 14:07 | 55.89126 | 93.91518 | 15323 ft | 403 kts | 287° |
| 2026-05-09 14:07 | 55.89968 | 93.86786 | 14590 ft | 398 kts | 287° |
| 2026-05-09 14:07 | 55.90798 | 93.82110 | 13873 ft | 394 kts | 287° |
| 2026-05-09 14:08 | 55.91671 | 93.77491 | 13126 ft | 391 kts | 288° |
| 2026-05-09 14:08 | 55.92585 | 93.72981 | 12448 ft | 386 kts | 289° |
| 2026-05-09 14:08 | 55.93517 | 93.68534 | 11765 ft | 380 kts | 290° |
| 2026-05-09 14:08 | 55.94437 | 93.64161 | 11204 ft | 371 kts | 290° |
| 2026-05-09 14:09 | 55.95311 | 93.59969 | 11067 ft | 351 kts | 289° |
| 2026-05-09 14:09 | 55.96120 | 93.56042 | 10943 ft | 332 kts | 289° |
| 2026-05-09 14:09 | 55.96892 | 93.52268 | 10821 ft | 315 kts | 289° |
| 2026-05-09 14:09 | 55.97622 | 93.48670 | 10692 ft | 301 kts | 289° |
| 2026-05-09 14:10 | 55.98977 | 93.41923 | 10381 ft | 280 kts | 289° |
| 2026-05-09 14:10 | 55.99626 | 93.38676 | 10132 ft | 276 kts | 288° |
| 2026-05-09 14:10 | 56.00271 | 93.35438 | 9898 ft | 276 kts | 288° |
| 2026-05-09 14:11 | 56.00910 | 93.32227 | 9744 ft | 274 kts | 288° |
| 2026-05-09 14:11 | 56.01551 | 93.29016 | 9615 ft | 274 kts | 288° |
| 2026-05-09 14:11 | 56.02178 | 93.25801 | 9479 ft | 273 kts | 285° |
| 2026-05-09 14:11 | 56.02627 | 93.22514 | 9348 ft | 272 kts | 282° |
| 2026-05-09 14:12 | 56.03066 | 93.19203 | 9058 ft | 273 kts | 282° |
| 2026-05-09 14:12 | 56.03504 | 93.15904 | 8598 ft | 273 kts | 282° |
| 2026-05-09 14:12 | 56.03939 | 93.12605 | 8135 ft | 273 kts | 282° |
| 2026-05-09 14:12 | 56.04373 | 93.09316 | 7695 ft | 271 kts | 282° |
| 2026-05-09 14:13 | 56.04799 | 93.06046 | 7298 ft | 268 kts | 282° |
| 2026-05-09 14:14 | 56.08913 | 92.84265 | 4202 ft | 260 kts | 291° |
| 2026-05-09 14:15 | 56.09603 | 92.81418 | 4142 ft | 244 kts | 291° |
| 2026-05-09 14:15 | 56.10259 | 92.78706 | 4038 ft | 231 kts | 291° |
| 2026-05-09 14:15 | 56.10881 | 92.76138 | 3947 ft | 219 kts | 291° |
| 2026-05-09 14:15 | 56.11477 | 92.73610 | 3553 ft | 221 kts | 291° |
| 2026-05-09 14:16 | 56.12072 | 92.71110 | 3245 ft | 215 kts | 291° |
| 2026-05-09 14:16 | 56.12654 | 92.68687 | 2957 ft | 209 kts | 291° |
| 2026-05-09 14:16 | 56.13221 | 92.66331 | 2682 ft | 203 kts | 292° |
| 2026-05-09 14:16 | 56.13773 | 92.64035 | 2414 ft | 198 kts | 292° |
| 2026-05-09 14:17 | 56.14302 | 92.61832 | 2179 ft | 190 kts | 292° |
| 2026-05-09 14:17 | 56.14807 | 92.59725 | 1902 ft | 173 kts | 292° |
| 2026-05-09 14:17 | 56.15256 | 92.57851 | 1679 ft | 156 kts | 293° |
| 2026-05-09 14:17 | 56.15534 | 92.56690 | 1533 ft | 150 kts | 292° |
| 2026-05-09 14:18 | 56.16087 | 92.54436 | 1294 ft | 145 kts | 293° |
| 2026-05-09 14:18 | 56.16337 | 92.53343 | 1160 ft | 142 kts | 291° |
| 2026-05-09 14:18 | 56.16722 | 92.51723 | 994 ft | 140 kts | 293° |
| 2026-05-09 14:18 | 56.17072 | 92.50240 | 947 ft | 111 kts | 292° |
| 2026-05-09 14:19 | 56.17313 | 92.49240 | 951 ft | 73 kts | 293° |
| 2026-05-09 14:19 | 56.17489 | 92.48715 | 952 ft | 30 kts | 336° |
| 2026-05-09 14:19 | 56.17621 | 92.48537 | 950 ft | 7 kts | 323° |
| 2026-05-09 14:19 | 56.17622 | 92.48535 | 951 ft | 0 kts | 323° |
| 2026-05-09 14:21 | 56.17685 | 92.48454 | 951 ft | 14 kts | 322° |
| 2026-05-09 14:21 | 56.17772 | 92.48409 | 951 ft | 14 kts | 21° |
| 2026-05-09 14:21 | 56.17865 | 92.48477 | 951 ft | 15 kts | 23° |
| 2026-05-09 14:21 | 56.17932 | 92.48526 | 951 ft | 5 kts | 21° |
| 2026-05-09 14:22 | 56.17941 | 92.48532 | 951 ft | 1 kts | 22° |
| 2026-05-09 14:22 | 56.17941 | 92.48533 | 951 ft | 0 kts | 22° |